sensor_id;sensor_type;location;lat;lon;timestamp;P1;durP1;ratioP1;P2;durP2;ratioP2
45136;SDS011;30894;51.740;19.498;2024-02-21T00:00:01;15.48;;;4.00;;
45136;SDS011;30894;51.740;19.498;2024-02-21T00:02:29;14.45;;;4.15;;
45136;SDS011;30894;51.740;19.498;2024-02-21T00:04:56;19.15;;;3.97;;
45136;SDS011;30894;51.740;19.498;2024-02-21T00:07:22;11.32;;;3.90;;
45136;SDS011;30894;51.740;19.498;2024-02-21T00:09:52;11.18;;;3.75;;
45136;SDS011;30894;51.740;19.498;2024-02-21T00:12:22;12.10;;;3.55;;
45136;SDS011;30894;51.740;19.498;2024-02-21T00:14:49;14.20;;;4.47;;
45136;SDS011;30894;51.740;19.498;2024-02-21T00:17:22;10.38;;;3.55;;
45136;SDS011;30894;51.740;19.498;2024-02-21T00:19:49;11.48;;;4.20;;
45136;SDS011;30894;51.740;19.498;2024-02-21T00:22:18;13.77;;;4.13;;
45136;SDS011;30894;51.740;19.498;2024-02-21T00:24:45;14.05;;;3.75;;
45136;SDS011;30894;51.740;19.498;2024-02-21T00:27:14;13.20;;;3.75;;
45136;SDS011;30894;51.740;19.498;2024-02-21T00:29:41;12.68;;;3.70;;
45136;SDS011;30894;51.740;19.498;2024-02-21T00:32:31;15.15;;;4.30;;
45136;SDS011;30894;51.740;19.498;2024-02-21T00:35:00;8.40;;;3.28;;
45136;SDS011;30894;51.740;19.498;2024-02-21T00:37:32;12.13;;;4.05;;
45136;SDS011;30894;51.740;19.498;2024-02-21T00:40:07;11.00;;;3.17;;
45136;SDS011;30894;51.740;19.498;2024-02-21T00:42:34;13.20;;;3.78;;
45136;SDS011;30894;51.740;19.498;2024-02-21T00:45:04;9.90;;;4.40;;
45136;SDS011;30894;51.740;19.498;2024-02-21T00:47:32;9.73;;;4.05;;
45136;SDS011;30894;51.740;19.498;2024-02-21T00:50:03;12.68;;;3.63;;
45136;SDS011;30894;51.740;19.498;2024-02-21T00:52:30;12.07;;;3.72;;
45136;SDS011;30894;51.740;19.498;2024-02-21T00:54:57;13.82;;;4.45;;
45136;SDS011;30894;51.740;19.498;2024-02-21T00:57:26;14.48;;;4.75;;
45136;SDS011;30894;51.740;19.498;2024-02-21T00:59:57;12.23;;;4.25;;
45136;SDS011;30894;51.740;19.498;2024-02-21T01:02:31;10.55;;;4.28;;
45136;SDS011;30894;51.740;19.498;2024-02-21T01:05:06;11.55;;;3.40;;
45136;SDS011;30894;51.740;19.498;2024-02-21T01:07:33;7.60;;;3.38;;
45136;SDS011;30894;51.740;19.498;2024-02-21T01:10:08;10.05;;;3.78;;
45136;SDS011;30894;51.740;19.498;2024-02-21T01:12:36;17.15;;;3.80;;
45136;SDS011;30894;51.740;19.498;2024-02-21T01:15:03;16.75;;;4.63;;
45136;SDS011;30894;51.740;19.498;2024-02-21T01:17:41;17.02;;;3.85;;
45136;SDS011;30894;51.740;19.498;2024-02-21T01:20:11;14.07;;;3.72;;
45136;SDS011;30894;51.740;19.498;2024-02-21T01:22:38;13.73;;;4.15;;
45136;SDS011;30894;51.740;19.498;2024-02-21T01:25:11;12.05;;;4.20;;
45136;SDS011;30894;51.740;19.498;2024-02-21T01:27:38;12.70;;;4.65;;
45136;SDS011;30894;51.740;19.498;2024-02-21T01:30:07;13.85;;;5.88;;
45136;SDS011;30894;51.740;19.498;2024-02-21T01:32:36;18.30;;;4.57;;
45136;SDS011;30894;51.740;19.498;2024-02-21T01:35:04;14.57;;;4.20;;
45136;SDS011;30894;51.740;19.498;2024-02-21T01:37:34;14.70;;;4.82;;
45136;SDS011;30894;51.740;19.498;2024-02-21T01:40:09;9.82;;;3.75;;
45136;SDS011;30894;51.740;19.498;2024-02-21T01:42:39;18.50;;;4.47;;
45136;SDS011;30894;51.740;19.498;2024-02-21T01:45:12;12.23;;;4.35;;
45136;SDS011;30894;51.740;19.498;2024-02-21T01:47:38;16.42;;;3.92;;
45136;SDS011;30894;51.740;19.498;2024-02-21T01:50:08;11.68;;;4.35;;
45136;SDS011;30894;51.740;19.498;2024-02-21T01:52:38;14.00;;;4.75;;
45136;SDS011;30894;51.740;19.498;2024-02-21T01:55:09;14.18;;;3.85;;
45136;SDS011;30894;51.740;19.498;2024-02-21T01:57:39;18.88;;;5.07;;
45136;SDS011;30894;51.740;19.498;2024-02-21T02:00:13;13.10;;;3.67;;
45136;SDS011;30894;51.740;19.498;2024-02-21T02:02:42;19.92;;;3.97;;
45136;SDS011;30894;51.740;19.498;2024-02-21T02:05:12;13.80;;;3.97;;
45136;SDS011;30894;51.740;19.498;2024-02-21T02:07:40;10.88;;;4.22;;
45136;SDS011;30894;51.740;19.498;2024-02-21T02:10:07;13.70;;;4.25;;
45136;SDS011;30894;51.740;19.498;2024-02-21T02:12:37;12.25;;;3.83;;
45136;SDS011;30894;51.740;19.498;2024-02-21T02:15:05;10.77;;;4.30;;
45136;SDS011;30894;51.740;19.498;2024-02-21T02:17:32;18.38;;;4.95;;
45136;SDS011;30894;51.740;19.498;2024-02-21T02:19:59;15.57;;;4.85;;
45136;SDS011;30894;51.740;19.498;2024-02-21T02:22:28;12.85;;;4.72;;
45136;SDS011;30894;51.740;19.498;2024-02-21T02:24:58;11.57;;;4.18;;
45136;SDS011;30894;51.740;19.498;2024-02-21T02:27:25;12.65;;;4.32;;
45136;SDS011;30894;51.740;19.498;2024-02-21T02:29:51;17.08;;;5.10;;
45136;SDS011;30894;51.740;19.498;2024-02-21T02:32:20;21.08;;;5.15;;
45136;SDS011;30894;51.740;19.498;2024-02-21T02:34:49;17.60;;;4.32;;
45136;SDS011;30894;51.740;19.498;2024-02-21T02:37:16;15.27;;;3.70;;
45136;SDS011;30894;51.740;19.498;2024-02-21T02:39:43;9.18;;;3.90;;
45136;SDS011;30894;51.740;19.498;2024-02-21T02:42:14;12.07;;;4.30;;
45136;SDS011;30894;51.740;19.498;2024-02-21T02:44:42;16.15;;;4.05;;
45136;SDS011;30894;51.740;19.498;2024-02-21T02:47:08;11.88;;;4.13;;
45136;SDS011;30894;51.740;19.498;2024-02-21T02:49:38;11.27;;;4.18;;
45136;SDS011;30894;51.740;19.498;2024-02-21T02:52:05;12.60;;;4.38;;
45136;SDS011;30894;51.740;19.498;2024-02-21T02:54:35;11.82;;;3.47;;
45136;SDS011;30894;51.740;19.498;2024-02-21T02:57:06;14.98;;;3.70;;
45136;SDS011;30894;51.740;19.498;2024-02-21T02:59:33;12.77;;;3.80;;
45136;SDS011;30894;51.740;19.498;2024-02-21T03:02:00;13.77;;;3.80;;
45136;SDS011;30894;51.740;19.498;2024-02-21T03:04:27;14.48;;;4.35;;
45136;SDS011;30894;51.740;19.498;2024-02-21T03:06:53;13.27;;;3.70;;
45136;SDS011;30894;51.740;19.498;2024-02-21T03:09:20;9.60;;;3.67;;
45136;SDS011;30894;51.740;19.498;2024-02-21T03:11:47;8.68;;;3.47;;
45136;SDS011;30894;51.740;19.498;2024-02-21T03:14:14;11.25;;;3.78;;
45136;SDS011;30894;51.740;19.498;2024-02-21T03:16:40;19.95;;;3.97;;
45136;SDS011;30894;51.740;19.498;2024-02-21T03:19:08;13.05;;;3.78;;
45136;SDS011;30894;51.740;19.498;2024-02-21T03:21:37;10.30;;;3.25;;
45136;SDS011;30894;51.740;19.498;2024-02-21T03:24:04;13.40;;;3.63;;
45136;SDS011;30894;51.740;19.498;2024-02-21T03:26:31;14.25;;;4.22;;
45136;SDS011;30894;51.740;19.498;2024-02-21T03:28:58;16.15;;;3.10;;
45136;SDS011;30894;51.740;19.498;2024-02-21T03:31:29;14.82;;;4.03;;
45136;SDS011;30894;51.740;19.498;2024-02-21T03:33:58;13.23;;;3.30;;
45136;SDS011;30894;51.740;19.498;2024-02-21T03:36:27;12.25;;;4.03;;
45136;SDS011;30894;51.740;19.498;2024-02-21T03:38:54;12.65;;;3.55;;
45136;SDS011;30894;51.740;19.498;2024-02-21T03:41:21;12.50;;;4.10;;
45136;SDS011;30894;51.740;19.498;2024-02-21T03:43:48;15.52;;;4.55;;
45136;SDS011;30894;51.740;19.498;2024-02-21T03:46:23;10.00;;;2.88;;
45136;SDS011;30894;51.740;19.498;2024-02-21T03:48:56;15.73;;;4.25;;
45136;SDS011;30894;51.740;19.498;2024-02-21T03:51:33;19.02;;;4.53;;
45136;SDS011;30894;51.740;19.498;2024-02-21T03:54:00;17.00;;;4.28;;
45136;SDS011;30894;51.740;19.498;2024-02-21T03:56:30;11.77;;;4.35;;
45136;SDS011;30894;51.740;19.498;2024-02-21T03:59:01;12.75;;;4.95;;
45136;SDS011;30894;51.740;19.498;2024-02-21T04:01:31;15.65;;;4.68;;
45136;SDS011;30894;51.740;19.498;2024-02-21T04:03:58;17.48;;;5.38;;
45136;SDS011;30894;51.740;19.498;2024-02-21T04:06:25;17.05;;;4.82;;
45136;SDS011;30894;51.740;19.498;2024-02-21T04:08:52;12.15;;;4.43;;
45136;SDS011;30894;51.740;19.498;2024-02-21T04:11:22;14.10;;;4.88;;
45136;SDS011;30894;51.740;19.498;2024-02-21T04:13:48;16.88;;;4.75;;
45136;SDS011;30894;51.740;19.498;2024-02-21T04:16:16;17.52;;;5.03;;
45136;SDS011;30894;51.740;19.498;2024-02-21T04:18:44;18.50;;;5.07;;
45136;SDS011;30894;51.740;19.498;2024-02-21T04:21:11;24.95;;;6.03;;
45136;SDS011;30894;51.740;19.498;2024-02-21T04:23:42;19.75;;;5.65;;
45136;SDS011;30894;51.740;19.498;2024-02-21T04:26:08;14.07;;;4.32;;
45136;SDS011;30894;51.740;19.498;2024-02-21T04:28:35;11.40;;;4.22;;
45136;SDS011;30894;51.740;19.498;2024-02-21T04:31:02;17.33;;;4.95;;
45136;SDS011;30894;51.740;19.498;2024-02-21T04:33:29;20.27;;;4.93;;
45136;SDS011;30894;51.740;19.498;2024-02-21T04:35:56;14.43;;;5.03;;
45136;SDS011;30894;51.740;19.498;2024-02-21T04:38:24;14.55;;;5.13;;
45136;SDS011;30894;51.740;19.498;2024-02-21T04:40:55;13.15;;;5.55;;
45136;SDS011;30894;51.740;19.498;2024-02-21T04:43:27;22.73;;;5.93;;
45136;SDS011;30894;51.740;19.498;2024-02-21T04:45:53;12.00;;;3.78;;
45136;SDS011;30894;51.740;19.498;2024-02-21T04:48:20;14.40;;;4.28;;
45136;SDS011;30894;51.740;19.498;2024-02-21T04:50:50;16.40;;;5.97;;
45136;SDS011;30894;51.740;19.498;2024-02-21T04:53:19;12.38;;;4.20;;
45136;SDS011;30894;51.740;19.498;2024-02-21T04:55:46;22.23;;;5.20;;
45136;SDS011;30894;51.740;19.498;2024-02-21T04:58:14;17.77;;;6.28;;
45136;SDS011;30894;51.740;19.498;2024-02-21T05:00:40;26.95;;;6.32;;
45136;SDS011;30894;51.740;19.498;2024-02-21T05:03:10;18.48;;;6.20;;
45136;SDS011;30894;51.740;19.498;2024-02-21T05:08:09;11.50;;;4.35;;
45136;SDS011;30894;51.740;19.498;2024-02-21T05:10:35;13.52;;;5.53;;
45136;SDS011;30894;51.740;19.498;2024-02-21T05:13:02;14.05;;;5.88;;
45136;SDS011;30894;51.740;19.498;2024-02-21T05:15:30;24.42;;;5.97;;
45136;SDS011;30894;51.740;19.498;2024-02-21T05:17:57;18.67;;;6.45;;
45136;SDS011;30894;51.740;19.498;2024-02-21T05:20:23;29.65;;;6.43;;
45136;SDS011;30894;51.740;19.498;2024-02-21T05:22:50;22.17;;;6.43;;
45136;SDS011;30894;51.740;19.498;2024-02-21T05:25:16;22.50;;;6.00;;
45136;SDS011;30894;51.740;19.498;2024-02-21T05:27:48;14.27;;;5.90;;
45136;SDS011;30894;51.740;19.498;2024-02-21T05:30:21;20.50;;;5.47;;
45136;SDS011;30894;51.740;19.498;2024-02-21T05:32:48;17.83;;;6.03;;
45136;SDS011;30894;51.740;19.498;2024-02-21T05:35:17;18.58;;;6.47;;
45136;SDS011;30894;51.740;19.498;2024-02-21T05:37:44;20.95;;;6.57;;
45136;SDS011;30894;51.740;19.498;2024-02-21T05:40:13;24.40;;;5.78;;
45136;SDS011;30894;51.740;19.498;2024-02-21T05:42:40;20.42;;;5.72;;
45136;SDS011;30894;51.740;19.498;2024-02-21T05:45:06;19.98;;;5.47;;
45136;SDS011;30894;51.740;19.498;2024-02-21T05:47:34;23.75;;;5.05;;
45136;SDS011;30894;51.740;19.498;2024-02-21T05:50:00;18.13;;;5.35;;
45136;SDS011;30894;51.740;19.498;2024-02-21T05:52:34;17.75;;;5.97;;
45136;SDS011;30894;51.740;19.498;2024-02-21T05:55:00;23.27;;;5.18;;
45136;SDS011;30894;51.740;19.498;2024-02-21T05:57:27;15.60;;;5.90;;
45136;SDS011;30894;51.740;19.498;2024-02-21T05:59:53;16.42;;;4.70;;
45136;SDS011;30894;51.740;19.498;2024-02-21T06:02:20;20.27;;;6.10;;
45136;SDS011;30894;51.740;19.498;2024-02-21T06:04:47;15.32;;;5.50;;
45136;SDS011;30894;51.740;19.498;2024-02-21T06:07:14;14.73;;;5.10;;
45136;SDS011;30894;51.740;19.498;2024-02-21T06:09:40;14.77;;;6.30;;
45136;SDS011;30894;51.740;19.498;2024-02-21T06:12:08;18.98;;;5.95;;
45136;SDS011;30894;51.740;19.498;2024-02-21T06:14:34;23.02;;;6.05;;
45136;SDS011;30894;51.740;19.498;2024-02-21T06:17:01;13.35;;;5.00;;
45136;SDS011;30894;51.740;19.498;2024-02-21T06:19:34;22.73;;;6.47;;
45136;SDS011;30894;51.740;19.498;2024-02-21T06:22:00;23.30;;;5.82;;
45136;SDS011;30894;51.740;19.498;2024-02-21T06:24:34;17.00;;;5.85;;
45136;SDS011;30894;51.740;19.498;2024-02-21T06:27:03;19.25;;;5.55;;
45136;SDS011;30894;51.740;19.498;2024-02-21T06:29:32;21.02;;;5.88;;
45136;SDS011;30894;51.740;19.498;2024-02-21T06:32:01;23.00;;;6.00;;
45136;SDS011;30894;51.740;19.498;2024-02-21T06:34:28;14.60;;;4.65;;
45136;SDS011;30894;51.740;19.498;2024-02-21T06:36:55;19.38;;;6.43;;
45136;SDS011;30894;51.740;19.498;2024-02-21T06:39:22;11.50;;;3.95;;
45136;SDS011;30894;51.740;19.498;2024-02-21T06:41:51;14.85;;;5.63;;
45136;SDS011;30894;51.740;19.498;2024-02-21T06:44:21;17.88;;;5.57;;
45136;SDS011;30894;51.740;19.498;2024-02-21T06:46:48;20.63;;;6.18;;
45136;SDS011;30894;51.740;19.498;2024-02-21T06:49:15;23.23;;;6.47;;
45136;SDS011;30894;51.740;19.498;2024-02-21T06:51:43;16.35;;;6.32;;
45136;SDS011;30894;51.740;19.498;2024-02-21T06:54:10;17.23;;;6.35;;
45136;SDS011;30894;51.740;19.498;2024-02-21T06:56:39;16.13;;;5.05;;
45136;SDS011;30894;51.740;19.498;2024-02-21T06:59:06;18.40;;;5.88;;
45136;SDS011;30894;51.740;19.498;2024-02-21T07:01:32;15.70;;;5.47;;
45136;SDS011;30894;51.740;19.498;2024-02-21T07:04:05;22.67;;;6.07;;
45136;SDS011;30894;51.740;19.498;2024-02-21T07:06:35;16.52;;;5.03;;
45136;SDS011;30894;51.740;19.498;2024-02-21T07:09:02;13.23;;;4.50;;
45136;SDS011;30894;51.740;19.498;2024-02-21T07:11:29;16.17;;;5.03;;
45136;SDS011;30894;51.740;19.498;2024-02-21T07:13:56;14.82;;;4.53;;
45136;SDS011;30894;51.740;19.498;2024-02-21T07:16:23;16.88;;;4.72;;
45136;SDS011;30894;51.740;19.498;2024-02-21T07:18:49;10.32;;;4.18;;
45136;SDS011;30894;51.740;19.498;2024-02-21T07:21:16;13.63;;;5.07;;
45136;SDS011;30894;51.740;19.498;2024-02-21T07:23:45;21.38;;;5.95;;
45136;SDS011;30894;51.740;19.498;2024-02-21T07:26:12;12.70;;;5.07;;
45136;SDS011;30894;51.740;19.498;2024-02-21T07:28:38;21.25;;;6.38;;
45136;SDS011;30894;51.740;19.498;2024-02-21T07:31:05;17.67;;;5.10;;
45136;SDS011;30894;51.740;19.498;2024-02-21T07:33:35;24.50;;;6.18;;
45136;SDS011;30894;51.740;19.498;2024-02-21T07:36:06;21.15;;;5.38;;
45136;SDS011;30894;51.740;19.498;2024-02-21T07:38:36;16.83;;;5.22;;
45136;SDS011;30894;51.740;19.498;2024-02-21T07:41:03;18.08;;;5.38;;
45136;SDS011;30894;51.740;19.498;2024-02-21T07:43:30;21.27;;;5.70;;
45136;SDS011;30894;51.740;19.498;2024-02-21T07:45:56;13.20;;;4.40;;
45136;SDS011;30894;51.740;19.498;2024-02-21T07:48:22;18.67;;;4.68;;
45136;SDS011;30894;51.740;19.498;2024-02-21T07:50:50;23.00;;;6.00;;
45136;SDS011;30894;51.740;19.498;2024-02-21T07:53:17;14.18;;;4.90;;
45136;SDS011;30894;51.740;19.498;2024-02-21T07:55:45;16.77;;;5.80;;
45136;SDS011;30894;51.740;19.498;2024-02-21T07:58:14;21.42;;;5.50;;
45136;SDS011;30894;51.740;19.498;2024-02-21T08:00:41;10.88;;;5.15;;
45136;SDS011;30894;51.740;19.498;2024-02-21T08:03:07;14.88;;;4.93;;
45136;SDS011;30894;51.740;19.498;2024-02-21T08:05:34;24.00;;;6.97;;
45136;SDS011;30894;51.740;19.498;2024-02-21T08:08:02;15.35;;;5.47;;
45136;SDS011;30894;51.740;19.498;2024-02-21T08:10:33;15.63;;;5.35;;
45136;SDS011;30894;51.740;19.498;2024-02-21T08:13:01;16.52;;;5.20;;
45136;SDS011;30894;51.740;19.498;2024-02-21T08:15:29;10.63;;;4.75;;
45136;SDS011;30894;51.740;19.498;2024-02-21T08:17:59;22.52;;;5.28;;
45136;SDS011;30894;51.740;19.498;2024-02-21T08:20:27;22.67;;;5.82;;
45136;SDS011;30894;51.740;19.498;2024-02-21T08:22:54;12.65;;;3.28;;
45136;SDS011;30894;51.740;19.498;2024-02-21T08:25:26;23.05;;;5.80;;
45136;SDS011;30894;51.740;19.498;2024-02-21T08:27:57;18.60;;;5.57;;
45136;SDS011;30894;51.740;19.498;2024-02-21T08:30:28;15.70;;;5.35;;
45136;SDS011;30894;51.740;19.498;2024-02-21T08:32:57;12.48;;;5.00;;
45136;SDS011;30894;51.740;19.498;2024-02-21T08:35:25;13.95;;;4.85;;
45136;SDS011;30894;51.740;19.498;2024-02-21T08:37:51;16.70;;;5.57;;
45136;SDS011;30894;51.740;19.498;2024-02-21T08:40:20;17.75;;;5.50;;
45136;SDS011;30894;51.740;19.498;2024-02-21T08:42:47;13.98;;;4.90;;
45136;SDS011;30894;51.740;19.498;2024-02-21T08:45:35;12.82;;;4.32;;
45136;SDS011;30894;51.740;19.498;2024-02-21T08:53:23;13.52;;;3.90;;
45136;SDS011;30894;51.740;19.498;2024-02-21T08:56:58;12.68;;;3.95;;
45136;SDS011;30894;51.740;19.498;2024-02-21T08:59:47;10.32;;;4.40;;
45136;SDS011;30894;51.740;19.498;2024-02-21T09:14:28;17.83;;;3.72;;
45136;SDS011;30894;51.740;19.498;2024-02-21T09:17:31;12.88;;;3.42;;
45136;SDS011;30894;51.740;19.498;2024-02-21T09:20:20;13.75;;;3.50;;
45136;SDS011;30894;51.740;19.498;2024-02-21T09:22:58;13.57;;;4.45;;
45136;SDS011;30894;51.740;19.498;2024-02-21T09:25:49;9.32;;;2.58;;
45136;SDS011;30894;51.740;19.498;2024-02-21T09:34:59;15.55;;;3.90;;
45136;SDS011;30894;51.740;19.498;2024-02-21T09:37:43;9.73;;;3.45;;
45136;SDS011;30894;51.740;19.498;2024-02-21T09:40:41;8.75;;;4.10;;
45136;SDS011;30894;51.740;19.498;2024-02-21T09:43:13;17.73;;;4.25;;
45136;SDS011;30894;51.740;19.498;2024-02-21T09:46:16;8.70;;;3.70;;
45136;SDS011;30894;51.740;19.498;2024-02-21T09:52:13;15.43;;;4.53;;
45136;SDS011;30894;51.740;19.498;2024-02-21T09:54:42;11.15;;;3.97;;
45136;SDS011;30894;51.740;19.498;2024-02-21T09:57:17;11.38;;;3.63;;
45136;SDS011;30894;51.740;19.498;2024-02-21T10:00:43;10.23;;;3.58;;
45136;SDS011;30894;51.740;19.498;2024-02-21T10:03:20;8.68;;;3.15;;
45136;SDS011;30894;51.740;19.498;2024-02-21T10:05:51;15.88;;;3.90;;
45136;SDS011;30894;51.740;19.498;2024-02-21T10:08:37;13.75;;;3.13;;
45136;SDS011;30894;51.740;19.498;2024-02-21T10:11:07;5.15;;;2.63;;
45136;SDS011;30894;51.740;19.498;2024-02-21T10:13:46;11.40;;;4.50;;
45136;SDS011;30894;51.740;19.498;2024-02-21T10:16:33;12.27;;;4.28;;
45136;SDS011;30894;51.740;19.498;2024-02-21T10:20:10;14.35;;;4.47;;
45136;SDS011;30894;51.740;19.498;2024-02-21T10:22:48;10.75;;;4.22;;
45136;SDS011;30894;51.740;19.498;2024-02-21T10:25:37;13.43;;;3.70;;
45136;SDS011;30894;51.740;19.498;2024-02-21T10:28:29;9.48;;;3.80;;
45136;SDS011;30894;51.740;19.498;2024-02-21T10:31:45;9.88;;;2.72;;
45136;SDS011;30894;51.740;19.498;2024-02-21T10:34:16;15.02;;;3.78;;
45136;SDS011;30894;51.740;19.498;2024-02-21T10:36:51;11.93;;;4.00;;
45136;SDS011;30894;51.740;19.498;2024-02-21T10:39:39;9.68;;;2.80;;
45136;SDS011;30894;51.740;19.498;2024-02-21T10:43:00;11.25;;;4.38;;
45136;SDS011;30894;51.740;19.498;2024-02-21T10:45:47;11.10;;;3.97;;
45136;SDS011;30894;51.740;19.498;2024-02-21T10:48:41;11.30;;;3.65;;
45136;SDS011;30894;51.740;19.498;2024-02-21T10:51:24;9.50;;;4.20;;
45136;SDS011;30894;51.740;19.498;2024-02-21T10:57:22;11.40;;;4.35;;
45136;SDS011;30894;51.740;19.498;2024-02-21T10:59:58;14.70;;;3.80;;
45136;SDS011;30894;51.740;19.498;2024-02-21T11:02:33;9.82;;;3.72;;
45136;SDS011;30894;51.740;19.498;2024-02-21T11:07:37;12.60;;;4.10;;
45136;SDS011;30894;51.740;19.498;2024-02-21T11:10:20;9.90;;;4.07;;
45136;SDS011;30894;51.740;19.498;2024-02-21T11:13:05;12.35;;;4.10;;
45136;SDS011;30894;51.740;19.498;2024-02-21T11:15:43;14.43;;;4.65;;
45136;SDS011;30894;51.740;19.498;2024-02-21T11:18:22;8.73;;;3.35;;
45136;SDS011;30894;51.740;19.498;2024-02-21T11:20:50;15.40;;;4.18;;
45136;SDS011;30894;51.740;19.498;2024-02-21T11:23:27;10.48;;;4.38;;
45136;SDS011;30894;51.740;19.498;2024-02-21T11:26:04;11.10;;;4.78;;
45136;SDS011;30894;51.740;19.498;2024-02-21T11:28:56;9.00;;;3.72;;
45136;SDS011;30894;51.740;19.498;2024-02-21T11:31:55;18.52;;;5.20;;
45136;SDS011;30894;51.740;19.498;2024-02-21T11:34:29;15.32;;;4.07;;
45136;SDS011;30894;51.740;19.498;2024-02-21T11:37:19;14.93;;;4.45;;
45136;SDS011;30894;51.740;19.498;2024-02-21T11:39:45;11.60;;;4.65;;
45136;SDS011;30894;51.740;19.498;2024-02-21T11:42:17;10.57;;;3.72;;
45136;SDS011;30894;51.740;19.498;2024-02-21T11:44:44;13.18;;;3.45;;
45136;SDS011;30894;51.740;19.498;2024-02-21T11:47:10;11.05;;;3.83;;
45136;SDS011;30894;51.740;19.498;2024-02-21T11:49:46;10.13;;;4.30;;
45136;SDS011;30894;51.740;19.498;2024-02-21T11:52:21;12.65;;;4.40;;
45136;SDS011;30894;51.740;19.498;2024-02-21T11:54:55;7.25;;;2.97;;
45136;SDS011;30894;51.740;19.498;2024-02-21T12:00:17;15.50;;;4.07;;
45136;SDS011;30894;51.740;19.498;2024-02-21T12:02:51;9.18;;;3.75;;
45136;SDS011;30894;51.740;19.498;2024-02-21T12:05:18;9.75;;;3.65;;
45136;SDS011;30894;51.740;19.498;2024-02-21T12:07:45;13.25;;;4.78;;
45136;SDS011;30894;51.740;19.498;2024-02-21T12:10:14;10.40;;;3.45;;
45136;SDS011;30894;51.740;19.498;2024-02-21T12:12:40;11.00;;;3.58;;
45136;SDS011;30894;51.740;19.498;2024-02-21T12:15:13;15.70;;;4.15;;
45136;SDS011;30894;51.740;19.498;2024-02-21T12:17:40;11.18;;;4.30;;
45136;SDS011;30894;51.740;19.498;2024-02-21T12:20:10;10.25;;;3.28;;
45136;SDS011;30894;51.740;19.498;2024-02-21T12:22:38;11.02;;;3.63;;
45136;SDS011;30894;51.740;19.498;2024-02-21T12:25:24;9.80;;;4.10;;
45136;SDS011;30894;51.740;19.498;2024-02-21T12:27:54;12.90;;;3.88;;
45136;SDS011;30894;51.740;19.498;2024-02-21T12:30:22;13.02;;;4.55;;
45136;SDS011;30894;51.740;19.498;2024-02-21T12:32:48;10.88;;;4.40;;
45136;SDS011;30894;51.740;19.498;2024-02-21T12:35:19;12.63;;;4.35;;
45136;SDS011;30894;51.740;19.498;2024-02-21T12:37:45;13.77;;;4.97;;
45136;SDS011;30894;51.740;19.498;2024-02-21T12:40:13;14.02;;;3.65;;
45136;SDS011;30894;51.740;19.498;2024-02-21T12:42:40;13.75;;;3.08;;
45136;SDS011;30894;51.740;19.498;2024-02-21T12:45:07;10.15;;;3.20;;
45136;SDS011;30894;51.740;19.498;2024-02-21T12:47:34;9.77;;;4.15;;
45136;SDS011;30894;51.740;19.498;2024-02-21T12:50:10;4.50;;;1.70;;
45136;SDS011;30894;51.740;19.498;2024-02-21T12:52:36;5.78;;;2.55;;
45136;SDS011;30894;51.740;19.498;2024-02-21T12:55:03;12.68;;;3.70;;
45136;SDS011;30894;51.740;19.498;2024-02-21T12:57:32;11.75;;;3.70;;
45136;SDS011;30894;51.740;19.498;2024-02-21T13:00:06;13.00;;;4.30;;
45136;SDS011;30894;51.740;19.498;2024-02-21T13:02:34;3.55;;;2.28;;
45136;SDS011;30894;51.740;19.498;2024-02-21T13:05:01;12.68;;;3.35;;
45136;SDS011;30894;51.740;19.498;2024-02-21T13:07:28;11.65;;;3.75;;
45136;SDS011;30894;51.740;19.498;2024-02-21T13:09:57;6.40;;;2.60;;
45136;SDS011;30894;51.740;19.498;2024-02-21T13:12:26;7.32;;;2.80;;
45136;SDS011;30894;51.740;19.498;2024-02-21T13:14:55;11.50;;;3.45;;
45136;SDS011;30894;51.740;19.498;2024-02-21T13:17:25;18.65;;;3.95;;
45136;SDS011;30894;51.740;19.498;2024-02-21T13:19:56;8.85;;;2.80;;
45136;SDS011;30894;51.740;19.498;2024-02-21T13:22:22;11.13;;;3.17;;
45136;SDS011;30894;51.740;19.498;2024-02-21T13:24:54;11.75;;;2.97;;
45136;SDS011;30894;51.740;19.498;2024-02-21T13:29:59;14.77;;;3.53;;
45136;SDS011;30894;51.740;19.498;2024-02-21T13:32:31;13.10;;;3.67;;
45136;SDS011;30894;51.740;19.498;2024-02-21T13:35:07;12.65;;;4.30;;
45136;SDS011;30894;51.740;19.498;2024-02-21T13:37:40;7.50;;;2.90;;
45136;SDS011;30894;51.740;19.498;2024-02-21T13:40:08;6.95;;;3.05;;
45136;SDS011;30894;51.740;19.498;2024-02-21T13:42:38;6.28;;;2.50;;
45136;SDS011;30894;51.740;19.498;2024-02-21T13:45:07;11.57;;;3.78;;
45136;SDS011;30894;51.740;19.498;2024-02-21T13:47:40;12.82;;;4.32;;
45136;SDS011;30894;51.740;19.498;2024-02-21T13:50:10;7.05;;;2.75;;
45136;SDS011;30894;51.740;19.498;2024-02-21T13:52:43;15.40;;;4.35;;
45136;SDS011;30894;51.740;19.498;2024-02-21T13:55:13;9.98;;;3.33;;
45136;SDS011;30894;51.740;19.498;2024-02-21T13:57:43;5.68;;;2.40;;
45136;SDS011;30894;51.740;19.498;2024-02-21T14:00:11;5.97;;;3.08;;
45136;SDS011;30894;51.740;19.498;2024-02-21T14:02:47;7.85;;;3.00;;
45136;SDS011;30894;51.740;19.498;2024-02-21T14:05:23;6.05;;;2.85;;
45136;SDS011;30894;51.740;19.498;2024-02-21T14:07:52;5.15;;;1.77;;
45136;SDS011;30894;51.740;19.498;2024-02-21T14:10:28;8.07;;;3.35;;
45136;SDS011;30894;51.740;19.498;2024-02-21T14:13:04;9.15;;;2.97;;
45136;SDS011;30894;51.740;19.498;2024-02-21T14:15:36;9.40;;;2.90;;
45136;SDS011;30894;51.740;19.498;2024-02-21T14:18:15;9.75;;;2.70;;
45136;SDS011;30894;51.740;19.498;2024-02-21T14:20:45;11.75;;;3.13;;
45136;SDS011;30894;51.740;19.498;2024-02-21T14:23:16;8.18;;;2.60;;
45136;SDS011;30894;51.740;19.498;2024-02-21T14:25:52;12.88;;;3.10;;
45136;SDS011;30894;51.740;19.498;2024-02-21T14:28:19;5.10;;;2.80;;
45136;SDS011;30894;51.740;19.498;2024-02-21T14:30:47;6.47;;;2.80;;
45136;SDS011;30894;51.740;19.498;2024-02-21T14:33:20;10.20;;;3.55;;
45136;SDS011;30894;51.740;19.498;2024-02-21T14:36:00;12.52;;;3.13;;
45136;SDS011;30894;51.740;19.498;2024-02-21T14:38:29;12.88;;;3.25;;
45136;SDS011;30894;51.740;19.498;2024-02-21T14:40:58;6.07;;;3.33;;
45136;SDS011;30894;51.740;19.498;2024-02-21T14:43:27;7.18;;;2.95;;
45136;SDS011;30894;51.740;19.498;2024-02-21T14:45:55;11.10;;;3.25;;
45136;SDS011;30894;51.740;19.498;2024-02-21T14:48:25;3.53;;;1.58;;
45136;SDS011;30894;51.740;19.498;2024-02-21T14:53:35;10.23;;;4.03;;
45136;SDS011;30894;51.740;19.498;2024-02-21T14:56:04;12.95;;;4.97;;
45136;SDS011;30894;51.740;19.498;2024-02-21T14:58:38;8.93;;;4.25;;
45136;SDS011;30894;51.740;19.498;2024-02-21T15:01:08;12.23;;;5.13;;
45136;SDS011;30894;51.740;19.498;2024-02-21T15:03:38;10.73;;;4.95;;
45136;SDS011;30894;51.740;19.498;2024-02-21T15:06:09;13.52;;;5.78;;
45136;SDS011;30894;51.740;19.498;2024-02-21T15:08:37;17.20;;;5.20;;
45136;SDS011;30894;51.740;19.498;2024-02-21T15:11:09;6.22;;;3.38;;
45136;SDS011;30894;51.740;19.498;2024-02-21T15:13:46;12.60;;;4.55;;
45136;SDS011;30894;51.740;19.498;2024-02-21T15:16:15;15.52;;;5.35;;
45136;SDS011;30894;51.740;19.498;2024-02-21T15:18:44;13.52;;;5.35;;
45136;SDS011;30894;51.740;19.498;2024-02-21T15:21:17;14.60;;;5.43;;
45136;SDS011;30894;51.740;19.498;2024-02-21T15:23:44;11.13;;;4.57;;
45136;SDS011;30894;51.740;19.498;2024-02-21T15:26:18;13.10;;;5.15;;
45136;SDS011;30894;51.740;19.498;2024-02-21T15:28:51;16.92;;;5.40;;
45136;SDS011;30894;51.740;19.498;2024-02-21T15:31:27;13.70;;;6.22;;